Terminal Aerodrome Forecast
Issued by NWS

Home | Current Version | Previous Version | Text Only | Print | Product List | Glossary On
Versions: 1 2 3 4 5 6 7 8 9 10 11 12 13 14 15 16 17 18 19 20 21 22 23 24 25 26 27 28 29 30 31 32
000
FTAK31 PAFA 070539
TAFAQT
TAF
PAQT 070539Z 0706/0806 08012KT 6SM BR OVC008
     FM071000 09010KT 1/2SM FG BKN003 OVC007
     FM071500 11007KT 2SM BR SCT003 OVC007
     FM071800 09007KT P6SM SCT007 BKN100 BKN200=

USA.gov is the U.S. government's official web portal to all federal, state and local government web resources and services.